Time;durP1;ratioP1;P1;durP2;ratioP2;P2;SDS_P1;SDS_P2;PMS_P1;PMS_P2;Temp;Humidity;BMP_temperature;BMP_pressure;BME280_temperature;BME280_humidity;BME280_pressure;Samples;Min_cycle;Max_cycle;Signal;HPM_P1;HPM_P2
2021/11/08 00:01:46;;;;;;;10.23;6.07;;;;;;;7.30;100.00;98578.56;5070524;28;20222;-64
2021/11/08 00:04:13;;;;;;;6.73;5.47;;;;;;;7.24;100.00;98573.59;5072097;28;20261;-63
2021/11/08 00:06:41;;;;;;;8.47;5.53;;;;;;;7.21;100.00;98570.28;5072877;28;20224;-64
2021/11/08 00:09:08;;;;;;;7.70;5.73;;;;;;;7.15;100.00;98568.78;5072618;28;20248;-63
2021/11/08 00:11:36;;;;;;;8.73;5.63;;;;;;;7.03;100.00;98573.78;5072410;28;20292;-64
2021/11/08 00:14:03;;;;;;;10.23;6.53;;;;;;;6.84;100.00;98568.56;5072717;28;20208;-64
2021/11/08 00:16:34;;;;;;;10.27;6.57;;;;;;;6.65;100.00;98566.88;5072415;28;20774;-64
2021/11/08 00:19:18;;;;;;;11.20;6.17;;;;;;;6.63;100.00;98564.31;5072451;28;20226;-64
2021/11/08 00:21:47;;;;;;;11.90;6.23;;;;;;;6.44;100.00;98571.34;5071612;28;20218;-63
2021/11/08 00:24:16;;;;;;;8.97;6.20;;;;;;;6.34;100.00;98566.59;5072070;28;20215;-64
2021/11/08 00:26:44;;;;;;;11.40;7.40;;;;;;;6.30;100.00;98571.09;5071003;28;20236;-63
2021/11/08 00:29:10;;;;;;;12.13;7.17;;;;;;;6.25;100.00;98577.50;5072221;28;20328;-65
2021/11/08 00:31:37;;;;;;;12.33;6.77;;;;;;;6.19;100.00;98580.41;5072278;28;20239;-64
2021/11/08 00:34:05;;;;;;;10.00;7.47;;;;;;;6.06;100.00;98581.84;5072367;28;20222;-64
2021/11/08 00:36:32;;;;;;;12.60;7.13;;;;;;;6.05;100.00;98581.00;5071960;28;20222;-63
2021/11/08 00:38:59;;;;;;;11.07;7.40;;;;;;;6.00;100.00;98590.88;5071884;28;20215;-64
2021/11/08 00:41:26;;;;;;;11.13;6.43;;;;;;;5.92;100.00;98584.25;5072129;28;20215;-63
2021/11/08 00:43:53;;;;;;;10.80;6.60;;;;;;;5.83;100.00;98574.13;5072335;28;20218;-63
2021/11/08 00:46:19;;;;;;;10.20;7.10;;;;;;;5.75;100.00;98576.22;5072251;28;20215;-63
2021/11/08 00:48:46;;;;;;;10.67;7.47;;;;;;;5.67;100.00;98584.41;5072203;28;20554;-64
2021/11/08 00:51:15;;;;;;;12.43;7.17;;;;;;;5.67;100.00;98589.66;5071842;28;20243;-63
2021/11/08 00:53:42;;;;;;;10.33;7.57;;;;;;;5.64;100.00;98584.53;5058802;28;20221;-64
2021/11/08 00:56:13;;;;;;;11.07;7.57;;;;;;;5.64;100.00;98589.78;5072168;28;20223;-63
2021/11/08 00:58:42;;;;;;;10.63;7.00;;;;;;;5.59;100.00;98594.38;5071657;28;20697;-64
2021/11/08 01:01:10;;;;;;;10.67;7.27;;;;;;;5.57;100.00;98588.31;5071530;28;20213;-63
2021/11/08 01:03:41;;;;;;;10.23;7.73;;;;;;;5.52;100.00;98590.31;5071914;28;20243;-64
2021/11/08 01:06:08;;;;;;;10.87;6.93;;;;;;;5.49;100.00;98585.19;5071937;28;20217;-63
2021/11/08 01:08:36;;;;;;;12.60;7.60;;;;;;;5.47;100.00;98581.78;5074958;28;20297;-64
2021/11/08 01:11:04;;;;;;;9.90;7.17;;;;;;;5.42;100.00;98586.34;5073246;28;20238;-64
2021/11/08 01:13:31;;;;;;;10.60;7.40;;;;;;;5.35;100.00;98582.28;5075337;28;20610;-63
2021/11/08 01:15:57;;;;;;;11.37;7.37;;;;;;;5.33;100.00;98573.66;5075266;28;20213;-64
2021/11/08 01:18:24;;;;;;;11.70;7.40;;;;;;;5.28;100.00;98583.47;5075086;28;20280;-64
2021/11/08 01:20:52;;;;;;;13.30;7.57;;;;;;;5.27;100.00;98583.50;5071160;28;20688;-63
2021/11/08 01:23:21;;;;;;;13.97;7.83;;;;;;;5.25;100.00;98580.94;5075503;28;20305;-63
2021/11/08 01:25:56;;;;;;;10.67;7.30;;;;;;;5.21;100.00;98589.00;5075746;28;20218;-63
2021/11/08 01:28:31;;;;;;;12.70;7.73;;;;;;;5.16;100.00;98590.94;5075366;28;20232;-64
2021/11/08 01:30:57;;;;;;;12.20;8.13;;;;;;;5.12;100.00;98590.22;5074858;28;20730;-64
2021/11/08 01:33:24;;;;;;;14.27;8.27;;;;;;;5.13;100.00;98585.84;5074862;28;20217;-63
2021/11/08 01:36:00;;;;;;;16.63;8.60;;;;;;;5.10;100.00;98591.19;5074963;28;20276;-63
2021/11/08 01:38:35;;;;;;;14.33;7.93;;;;;;;5.02;100.00;98588.88;5073998;28;20216;-63
2021/11/08 01:41:03;;;;;;;11.07;7.60;;;;;;;4.99;100.00;98589.00;5074806;28;20278;-64
2021/11/08 01:43:30;;;;;;;12.23;8.07;;;;;;;4.94;100.00;98605.84;5074737;28;20702;-64
2021/11/08 01:45:56;;;;;;;13.63;7.93;;;;;;;4.86;100.00;98598.28;5074864;28;20234;-63
2021/11/08 01:48:23;;;;;;;12.23;7.87;;;;;;;4.82;100.00;98617.63;5070606;28;20220;-63
2021/11/08 01:50:49;;;;;;;11.50;7.73;;;;;;;4.80;100.00;98608.97;5074821;28;20758;-63
2021/11/08 01:53:16;;;;;;;13.00;8.27;;;;;;;4.77;100.00;98603.00;5075258;28;20213;-63
2021/11/08 01:55:43;;;;;;;11.57;7.33;;;;;;;4.72;100.00;98611.06;5073508;28;20217;-63
2021/11/08 01:58:11;;;;;;;12.90;8.23;;;;;;;4.74;100.00;98608.34;5073763;28;20212;-63
2021/11/08 02:00:39;;;;;;;10.83;7.90;;;;;;;4.65;100.00;98612.16;5073386;28;20215;-64
2021/11/08 02:03:05;;;;;;;13.33;7.73;;;;;;;4.64;100.00;98610.47;5073497;28;20224;-64
2021/11/08 02:05:32;;;;;;;10.57;7.30;;;;;;;4.60;100.00;98619.38;5073496;28;20224;-63
2021/11/08 02:07:59;;;;;;;9.70;7.13;;;;;;;4.51;100.00;98622.31;5073381;28;20213;-63
2021/11/08 02:10:26;;;;;;;11.43;7.57;;;;;;;4.45;100.00;98611.25;5073387;28;20213;-63
2021/11/08 02:12:53;;;;;;;10.97;7.60;;;;;;;4.39;100.00;98609.69;5072087;28;20252;-63
2021/11/08 02:15:21;;;;;;;10.27;7.50;;;;;;;4.37;100.00;98619.38;5073794;28;20217;-63
2021/11/08 02:17:49;;;;;;;13.13;6.90;;;;;;;4.33;100.00;98617.78;5073027;28;20743;-64
2021/11/08 02:20:17;;;;;;;12.57;7.67;;;;;;;4.30;100.00;98620.50;5073627;28;20247;-63
2021/11/08 02:22:45;;;;;;;11.27;7.23;;;;;;;4.32;100.00;98621.31;5073866;28;20221;-63
2021/11/08 02:25:12;;;;;;;11.20;6.97;;;;;;;4.24;100.00;98618.13;5073462;28;20217;-63
2021/11/08 02:27:42;;;;;;;10.73;7.47;;;;;;;4.20;100.00;98621.75;5073031;28;20704;-63
2021/11/08 02:30:10;;;;;;;10.37;7.37;;;;;;;4.08;100.00;98616.94;5073328;28;20214;-63
2021/11/08 02:32:37;;;;;;;10.97;7.67;;;;;;;4.01;100.00;98619.84;5073621;28;20268;-63
2021/11/08 02:35:07;;;;;;;15.33;8.17;;;;;;;4.00;100.00;98625.97;5073212;28;20213;-63
2021/11/08 02:37:35;;;;;;;10.30;7.60;;;;;;;4.00;100.00;98628.59;5070403;28;20213;-63
2021/11/08 02:40:03;;;;;;;11.07;7.53;;;;;;;4.02;100.00;98622.41;5071564;28;20688;-63
2021/11/08 02:42:30;;;;;;;9.63;7.60;;;;;;;4.02;100.00;98627.63;5072788;28;20224;-63
2021/11/08 02:44:57;;;;;;;12.30;7.07;;;;;;;4.03;100.00;98629.34;5073004;28;20208;-63
2021/11/08 02:47:24;;;;;;;13.77;8.03;;;;;;;4.00;100.00;98626.84;5070211;28;20747;-64
2021/11/08 02:49:53;;;;;;;14.93;7.93;;;;;;;4.02;100.00;98632.88;5072684;28;20220;-63
2021/11/08 02:52:24;;;;;;;11.97;7.63;;;;;;;4.02;100.00;98627.63;5072509;28;20240;-63
2021/11/08 02:54:52;;;;;;;11.60;7.33;;;;;;;4.04;100.00;98641.50;5072841;28;20214;-63
2021/11/08 02:57:20;;;;;;;10.27;7.67;;;;;;;4.05;100.00;98629.28;5072463;28;20255;-63
2021/11/08 02:59:47;;;;;;;11.93;7.80;;;;;;;3.99;100.00;98633.00;5072598;28;20212;-63
2021/11/08 03:02:18;;;;;;;11.10;8.00;;;;;;;3.98;100.00;98631.25;5072706;28;20391;-63
2021/11/08 03:04:48;;;;;;;10.57;7.57;;;;;;;4.04;100.00;98631.03;5072565;28;20247;-63
2021/11/08 03:07:16;;;;;;;12.53;7.40;;;;;;;4.05;100.00;98632.78;5070935;28;20223;-63
2021/11/08 03:09:45;;;;;;;12.33;7.40;;;;;;;4.00;100.00;98634.69;5072444;28;20250;-63
2021/11/08 03:12:15;;;;;;;11.10;7.40;;;;;;;3.92;100.00;98635.88;5072240;28;20240;-63
2021/11/08 03:14:44;;;;;;;12.00;7.20;;;;;;;3.85;100.00;98640.44;5072242;28;20658;-63
2021/11/08 03:17:14;;;;;;;9.20;6.90;;;;;;;3.83;100.00;98641.41;5072689;28;20223;-63
2021/11/08 03:19:43;;;;;;;11.43;7.07;;;;;;;3.77;100.00;98634.63;5072213;28;20227;-63
2021/11/08 03:22:14;;;;;;;14.97;7.57;;;;;;;3.77;100.00;98634.63;5072225;28;20293;-63
2021/11/08 03:24:44;;;;;;;9.83;6.90;;;;;;;3.77;100.00;98639.00;5072129;28;20215;-63
2021/11/08 03:27:18;;;;;;;11.13;7.33;;;;;;;3.66;100.00;98644.59;5072040;28;20224;-63
2021/11/08 03:29:45;;;;;;;10.07;7.23;;;;;;;3.63;100.00;98634.25;5071381;28;20257;-63
2021/11/08 03:32:15;;;;;;;9.37;6.93;;;;;;;3.66;100.00;98636.75;5070760;28;20235;-63
2021/11/08 03:34:47;;;;;;;10.47;7.67;;;;;;;3.57;100.00;98642.28;5073337;28;20212;-63
2021/11/08 03:37:14;;;;;;;12.07;7.70;;;;;;;3.55;100.00;98641.47;5073181;28;20294;-63
2021/11/08 03:39:41;;;;;;;15.03;8.30;;;;;;;3.52;100.00;98641.59;5073143;28;20686;-63
2021/11/08 03:42:08;;;;;;;11.33;7.30;;;;;;;3.55;100.00;98641.47;5073320;28;20211;-63
2021/11/08 03:44:36;;;;;;;11.63;7.27;;;;;;;3.47;100.00;98648.72;5073181;28;20207;-63
2021/11/08 03:47:03;;;;;;;11.20;7.50;;;;;;;3.46;100.00;98640.94;5073279;28;20213;-63
2021/11/08 03:49:29;;;;;;;11.47;7.70;;;;;;;3.46;100.00;98649.63;5073115;28;20215;-63
2021/11/08 03:51:56;;;;;;;10.40;7.33;;;;;;;3.42;100.00;98653.25;5073040;28;20322;-63
2021/11/08 03:54:23;;;;;;;12.23;8.07;;;;;;;3.40;100.00;98655.06;5072855;28;20669;-63
2021/11/08 03:56:49;;;;;;;12.47;7.83;;;;;;;3.48;100.00;98655.66;5073364;28;20548;-63
2021/11/08 03:59:15;;;;;;;12.30;7.90;;;;;;;3.45;100.00;98649.69;5071099;28;20678;-63
2021/11/08 04:01:44;;;;;;;13.03;7.77;;;;;;;3.43;100.00;98657.56;5072960;28;20577;-63
2021/11/08 04:04:10;;;;;;;14.97;8.00;;;;;;;3.40;100.00;98657.66;5072868;28;20774;-63
2021/11/08 04:06:39;;;;;;;13.40;7.97;;;;;;;3.36;100.00;98653.44;5073031;28;20215;-63
2021/11/08 04:09:09;;;;;;;11.07;7.47;;;;;;;3.35;100.00;98659.56;5073039;28;20223;-63
2021/11/08 04:11:35;;;;;;;13.47;8.20;;;;;;;3.35;100.00;98664.78;5072915;28;20231;-63
2021/11/08 04:14:03;;;;;;;14.40;9.00;;;;;;;3.36;100.00;98669.09;5072864;28;20221;-63
2021/11/08 04:16:33;;;;;;;12.60;8.70;;;;;;;3.40;100.00;98668.13;5072828;28;20250;-63
2021/11/08 04:19:02;;;;;;;13.30;9.27;;;;;;;3.45;100.00;98668.84;5072583;28;20214;-63
2021/11/08 04:21:32;;;;;;;16.30;9.17;;;;;;;3.42;100.00;98666.31;5072698;28;20269;-64
2021/11/08 04:23:59;;;;;;;16.97;8.83;;;;;;;3.40;100.00;98673.34;5072607;28;20576;-63
2021/11/08 04:26:28;;;;;;;14.70;8.87;;;;;;;3.43;100.00;98677.63;5071759;28;20211;-63
2021/11/08 04:28:59;;;;;;;16.17;8.57;;;;;;;3.35;100.00;98677.84;5072796;28;20219;-63
2021/11/08 04:31:28;;;;;;;14.20;8.90;;;;;;;3.37;100.00;98676.03;5072715;28;20219;-63
2021/11/08 04:34:01;;;;;;;13.80;8.40;;;;;;;3.28;100.00;98678.97;5060539;28;20223;-63
2021/11/08 04:39:16;;;;;;;15.13;8.97;;;;;;;3.37;100.00;98681.25;5072622;28;20541;-63
2021/11/08 04:41:49;;;;;;;11.77;7.87;;;;;;;3.20;100.00;98683.59;5074486;28;20222;-63
2021/11/08 04:47:20;;;;;;;12.03;8.13;;;;;;;2.99;100.00;98675.56;5075934;28;20219;-63
2021/11/08 04:49:54;;;;;;;12.17;8.30;;;;;;;2.92;100.00;98682.72;5065534;28;20211;-63
2021/11/08 04:52:30;;;;;;;12.93;8.63;;;;;;;2.90;100.00;98686.25;5074719;28;20703;-63
2021/11/08 04:55:04;;;;;;;10.10;7.73;;;;;;;2.95;100.00;98682.59;5076387;28;20584;-63
2021/11/08 04:58:00;;;;;;;14.23;8.77;;;;;;;2.99;100.00;98678.16;5064237;28;20212;-63
2021/11/08 05:22:35;;;;;;;9.50;6.83;;;;;;;2.84;100.00;98702.97;5075740;28;20299;-63
2021/11/08 05:25:13;;;;;;;9.40;7.13;;;;;;;2.77;100.00;98700.59;5063547;28;20219;-63
2021/11/08 05:28:06;;;;;;;10.33;6.93;;;;;;;2.86;100.00;98701.16;5075835;28;20222;-63
2021/11/08 05:30:33;;;;;;;13.53;7.30;;;;;;;2.93;100.00;98704.47;5074867;28;20681;-63
2021/11/08 05:33:01;;;;;;;16.07;8.27;;;;;;;3.10;100.00;98700.44;5075418;28;20237;-63
2021/11/08 05:35:27;;;;;;;15.00;8.30;;;;;;;3.31;100.00;98699.75;5075612;28;20610;-63
2021/11/08 05:37:54;;;;;;;18.33;8.87;;;;;;;3.50;100.00;98698.28;5075524;28;20215;-63
2021/11/08 05:40:27;;;;;;;15.20;8.00;;;;;;;3.57;100.00;98705.03;5075354;28;20677;-63
2021/11/08 05:42:54;;;;;;;11.07;8.07;;;;;;;3.52;100.00;98709.53;5073573;28;20309;-63
2021/11/08 05:45:21;;;;;;;12.77;7.83;;;;;;;3.67;100.00;98709.03;5075157;28;20700;-64
2021/11/08 05:47:48;;;;;;;12.90;8.20;;;;;;;3.70;100.00;98710.69;5075306;28;20215;-63
2021/11/08 05:50:17;;;;;;;15.57;8.60;;;;;;;3.77;100.00;98704.34;5075250;28;20208;-63
2021/11/08 05:52:45;;;;;;;15.20;8.60;;;;;;;3.87;100.00;98713.59;5074260;28;20252;-63
2021/11/08 05:55:11;;;;;;;14.37;8.40;;;;;;;3.85;100.00;98711.03;5075340;28;20215;-63
2021/11/08 05:57:47;;;;;;;15.07;8.33;;;;;;;3.80;100.00;98718.16;5074991;28;20211;-63
2021/11/08 06:49:30;;;;;;;14.23;7.37;;;;;;;3.38;100.00;98753.53;5073442;28;20320;-63
2021/11/08 06:51:57;;;;;;;10.23;7.07;;;;;;;3.44;100.00;98750.75;5074276;28;20294;-63
2021/11/08 06:54:29;;;;;;;11.53;7.80;;;;;;;3.44;100.00;98755.09;5073920;28;20703;-63
2021/11/08 06:56:59;;;;;;;11.63;7.23;;;;;;;3.44;100.00;98758.56;5073878;28;20265;-64
2021/11/08 06:59:27;;;;;;;10.73;7.33;;;;;;;3.45;100.00;98764.63;5073874;28;20230;-63
2021/11/08 07:01:56;;;;;;;13.57;7.83;;;;;;;3.46;100.00;98767.22;5072449;28;20579;-63
2021/11/08 07:04:24;;;;;;;13.17;7.53;;;;;;;3.47;100.00;98765.44;5073003;28;20244;-63
2021/11/08 07:06:50;;;;;;;16.33;7.90;;;;;;;3.40;100.00;98764.78;5072675;28;20208;-63
2021/11/08 07:09:18;;;;;;;14.73;7.33;;;;;;;3.44;100.00;98765.53;5073913;28;20224;-63
2021/11/08 07:11:45;;;;;;;13.80;7.40;;;;;;;3.47;100.00;98771.53;5073908;28;20242;-63
2021/11/08 07:14:12;;;;;;;12.40;7.77;;;;;;;3.47;100.00;98771.53;5073766;28;20235;-64
2021/11/08 07:16:39;;;;;;;13.40;8.37;;;;;;;3.44;100.00;98779.47;5072295;28;20219;-63
2021/11/08 07:19:08;;;;;;;12.53;7.50;;;;;;;3.45;100.00;98781.19;5061375;28;20216;-63
2021/11/08 07:21:35;;;;;;;12.87;7.53;;;;;;;3.48;100.00;98778.47;5073697;28;20216;-63
2021/11/08 07:24:01;;;;;;;15.60;8.10;;;;;;;3.46;100.00;98788.13;5073711;28;20216;-63
2021/11/08 07:26:28;;;;;;;15.20;8.10;;;;;;;3.50;100.00;98775.81;5070310;28;20211;-64
2021/11/08 07:28:54;;;;;;;15.87;8.57;;;;;;;3.56;100.00;98791.31;5073537;28;20656;-64
2021/11/08 07:31:21;;;;;;;12.27;8.20;;;;;;;3.61;100.00;98790.25;5073108;28;20215;-63
2021/11/08 07:33:47;;;;;;;11.60;7.53;;;;;;;3.65;100.00;98784.03;5073398;28;20242;-63
2021/11/08 07:36:16;;;;;;;12.60;7.77;;;;;;;3.68;100.00;98788.31;5073347;28;20212;-63
2021/11/08 07:38:42;;;;;;;13.50;7.77;;;;;;;3.72;100.00;98789.94;5073289;28;20207;-64
2021/11/08 07:41:10;;;;;;;13.10;7.63;;;;;;;3.74;100.00;98788.94;5073015;28;20693;-63
2021/11/08 07:43:37;;;;;;;13.30;8.30;;;;;;;3.75;100.00;98788.06;5073026;28;20227;-63
2021/11/08 07:46:04;;;;;;;14.33;7.73;;;;;;;3.89;100.00;98787.59;5073093;28;20207;-64
2021/11/08 07:48:30;;;;;;;11.13;7.87;;;;;;;3.95;100.00;98792.63;5073100;28;20215;-63
2021/11/08 07:50:57;;;;;;;10.20;7.33;;;;;;;4.03;100.00;98790.66;5072783;28;20208;-64
2021/11/08 07:53:25;;;;;;;15.13;7.83;;;;;;;4.09;100.00;98799.13;5071403;28;20297;-63
2021/11/08 07:55:51;;;;;;;13.97;8.07;;;;;;;4.22;100.00;98797.81;5073054;28;20220;-63
2021/11/08 07:58:18;;;;;;;13.93;8.23;;;;;;;4.31;100.00;98797.53;5073045;28;20228;-64
2021/11/08 08:00:45;;;;;;;14.70;8.37;;;;;;;4.30;100.00;98795.81;5072936;28;20205;-64
2021/11/08 08:03:12;;;;;;;11.63;8.00;;;;;;;4.32;100.00;98794.00;5072888;28;20212;-64
2021/11/08 08:05:39;;;;;;;14.63;8.47;;;;;;;4.37;100.00;98793.81;5072849;28;20244;-64
2021/11/08 08:08:06;;;;;;;12.50;8.83;;;;;;;4.48;100.00;98789.97;5072819;28;20306;-64
2021/11/08 08:10:34;;;;;;;11.53;8.30;;;;;;;4.53;100.00;98793.25;5072547;28;20216;-64
2021/11/08 08:13:01;;;;;;;14.50;9.00;;;;;;;4.58;100.00;98796.56;5072639;28;20237;-64
2021/11/08 08:15:27;;;;;;;15.47;8.27;;;;;;;4.64;100.00;98795.50;5072684;28;20213;-64
2021/11/08 08:17:56;;;;;;;15.17;9.00;;;;;;;4.70;100.00;98790.91;5072774;28;20220;-64
2021/11/08 08:20:24;;;;;;;13.37;8.90;;;;;;;4.75;100.00;98794.22;5071368;28;20319;-63
2021/11/08 08:22:51;;;;;;;16.37;9.07;;;;;;;4.79;100.00;98785.34;5069213;28;20733;-63
2021/11/08 08:25:19;;;;;;;14.23;9.70;;;;;;;4.82;100.00;98787.84;5071619;28;20216;-64
2021/11/08 08:27:47;;;;;;;15.37;9.43;;;;;;;4.88;100.00;98805.94;5071556;28;20245;-64
2021/11/08 08:30:14;;;;;;;15.40;10.00;;;;;;;4.92;100.00;98789.22;5070648;28;20222;-63
2021/11/08 08:32:40;;;;;;;17.80;10.10;;;;;;;4.97;100.00;98789.91;5063047;28;20234;-64
2021/11/08 08:35:08;;;;;;;24.20;10.90;;;;;;;5.01;100.00;98801.13;5058014;28;20224;-63
2021/11/08 08:37:35;;;;;;;14.97;9.50;;;;;;;5.12;100.00;98793.75;5070870;28;20239;-64
2021/11/08 08:40:02;;;;;;;18.13;9.30;;;;;;;5.20;100.00;98807.41;5071828;28;20210;-64
2021/11/08 08:42:29;;;;;;;17.13;9.97;;;;;;;5.29;100.00;98802.69;5071303;28;20703;-63
2021/11/08 08:44:57;;;;;;;17.10;9.47;;;;;;;5.36;100.00;98804.16;5069706;28;20236;-63
2021/11/08 08:47:24;;;;;;;16.50;9.57;;;;;;;5.47;100.00;98801.09;5069813;28;20218;-62
2021/11/08 08:49:50;;;;;;;13.60;9.23;;;;;;;5.55;100.00;98799.91;5072573;28;20228;-62
2021/11/08 08:52:19;;;;;;;14.97;10.03;;;;;;;5.72;100.00;98807.97;5072640;28;20581;-63
2021/11/08 08:54:46;;;;;;;18.83;10.07;;;;;;;5.97;100.00;98797.38;5072473;28;20230;-63
2021/11/08 08:57:12;;;;;;;19.70;11.17;;;;;;;6.17;100.00;98808.78;5069866;28;20220;-62
2021/11/08 08:59:40;;;;;;;17.77;10.43;;;;;;;6.23;100.00;98805.06;5072528;28;20215;-63
2021/11/08 09:02:09;;;;;;;20.23;11.77;;;;;;;6.26;100.00;98804.91;5072203;28;20256;-62
2021/11/08 09:04:36;;;;;;;15.63;10.20;;;;;;;6.32;100.00;98795.03;5072330;28;20234;-62
2021/11/08 09:07:04;;;;;;;15.70;10.07;;;;;;;6.35;100.00;98789.63;5069636;28;20225;-63
2021/11/08 09:09:30;;;;;;;16.33;9.93;;;;;;;6.38;100.00;98793.91;5072340;28;20219;-63
2021/11/08 09:11:57;;;;;;;17.70;10.83;;;;;;;6.40;100.00;98802.59;5070695;28;20229;-63
2021/11/08 09:14:26;;;;;;;19.63;11.50;;;;;;;6.42;100.00;98793.72;5072234;28;20239;-63
2021/11/08 09:16:53;;;;;;;16.90;10.73;;;;;;;6.52;100.00;98800.28;5069893;28;20215;-63
2021/11/08 09:19:21;;;;;;;16.80;11.23;;;;;;;6.63;100.00;98798.06;5072042;28;20219;-63
2021/11/08 09:21:48;;;;;;;20.23;12.03;;;;;;;6.76;100.00;98811.50;5071972;28;20215;-63
2021/11/08 09:24:15;;;;;;;16.60;11.57;;;;;;;6.98;100.00;98810.53;5071990;28;20740;-63
2021/11/08 09:26:42;;;;;;;18.87;10.90;;;;;;;6.94;100.00;98803.69;5069358;28;20215;-62
2021/11/08 09:29:09;;;;;;;16.33;10.53;;;;;;;7.05;100.00;98806.72;5074268;28;20225;-63
2021/11/08 09:31:35;;;;;;;17.03;9.63;;;;;;;7.26;100.00;98803.09;5075599;28;20215;-63
2021/11/08 09:34:07;;;;;;;15.33;8.70;;;;;;;7.21;100.00;98805.06;5075415;28;20606;-63
2021/11/08 09:36:37;;;;;;;14.10;8.70;;;;;;;7.11;100.00;98821.34;5071898;28;20219;-63
2021/11/08 09:39:09;;;;;;;16.60;9.93;;;;;;;7.08;100.00;98818.84;5075710;28;20238;-63
2021/11/08 09:41:37;;;;;;;19.70;10.47;;;;;;;7.04;100.00;98818.16;5075315;28;20226;-63
2021/11/08 09:44:07;;;;;;;15.60;9.63;;;;;;;6.94;100.00;98810.72;5074615;28;20215;-63
2021/11/08 09:46:35;;;;;;;14.60;8.30;;;;;;;6.95;100.00;98817.69;5074051;28;20257;-63
2021/11/08 09:49:04;;;;;;;18.60;8.83;;;;;;;6.97;100.00;98826.34;5069789;28;20668;-63
2021/11/08 09:51:36;;;;;;;14.13;8.43;;;;;;;6.94;100.00;98827.34;5070289;28;20234;-63
2021/11/08 09:54:03;;;;;;;14.77;9.43;;;;;;;7.01;100.00;98828.78;5072645;28;20241;-63
2021/11/08 09:56:30;;;;;;;17.57;9.03;;;;;;;7.17;100.00;98834.22;5074190;28;20211;-63
2021/11/08 09:59:00;;;;;;;14.50;8.37;;;;;;;7.29;100.00;98829.28;5074236;28;20226;-63
2021/11/08 10:01:28;;;;;;;17.37;8.93;;;;;;;7.46;100.00;98831.97;5073991;28;20212;-63
2021/11/08 10:03:56;;;;;;;15.70;8.97;;;;;;;7.52;100.00;98829.91;5072583;28;20236;-63
2021/11/08 10:06:23;;;;;;;15.53;8.87;;;;;;;7.69;100.00;98823.88;5062570;28;20216;-63
2021/11/08 10:08:51;;;;;;;16.17;9.17;;;;;;;7.54;100.00;98837.75;5073617;28;20357;-63
2021/11/08 10:11:19;;;;;;;16.53;9.43;;;;;;;7.42;100.00;98840.94;5073655;28;20465;-64
2021/11/08 10:13:47;;;;;;;19.80;11.23;;;;;;;7.39;100.00;98835.78;5073823;28;20625;-63
2021/11/08 10:16:16;;;;;;;17.27;9.37;;;;;;;7.32;100.00;98834.38;5062598;28;20589;-63
2021/11/08 10:18:47;;;;;;;15.63;9.10;;;;;;;7.43;100.00;98837.38;5073490;28;20601;-63
2021/11/08 10:21:16;;;;;;;14.77;8.80;;;;;;;7.51;100.00;98829.97;5073655;28;20215;-63
2021/11/08 10:23:46;;;;;;;17.30;9.07;;;;;;;7.55;100.00;98844.72;5070803;28;20669;-63
2021/11/08 10:26:17;;;;;;;15.37;7.70;;;;;;;7.60;100.00;98838.31;5073323;28;20222;-63
2021/11/08 10:28:44;;;;;;;13.53;8.00;;;;;;;7.53;100.00;98836.03;5073422;28;20219;-63
2021/11/08 10:31:15;;;;;;;15.43;8.00;;;;;;;7.46;100.00;98837.22;5071922;28;20218;-63
2021/11/08 10:33:43;;;;;;;16.93;8.80;;;;;;;7.41;100.00;98828.72;5070595;28;20244;-63
2021/11/08 10:36:12;;;;;;;15.87;9.03;;;;;;;7.29;100.00;98831.91;5071697;28;20211;-63
2021/11/08 10:38:41;;;;;;;16.90;9.40;;;;;;;7.33;100.00;98831.69;5072961;28;20219;-63
2021/11/08 10:41:11;;;;;;;17.83;10.30;;;;;;;7.44;100.00;98831.19;5073009;28;20265;-64
2021/11/08 10:43:42;;;;;;;15.37;9.97;;;;;;;7.48;100.00;98832.75;5072076;28;20222;-63
2021/11/08 10:46:11;;;;;;;15.83;9.20;;;;;;;7.53;100.00;98833.41;5073161;28;20226;-63
2021/11/08 10:48:41;;;;;;;16.00;7.90;;;;;;;7.57;100.00;98841.09;5073097;28;20220;-63
2021/11/08 10:51:12;;;;;;;15.40;8.57;;;;;;;7.68;100.00;98837.94;5073025;28;20219;-63
2021/11/08 10:53:50;;;;;;;10.10;7.63;;;;;;;7.72;100.00;98842.16;5062051;28;20268;-63
2021/11/08 10:56:21;;;;;;;14.37;8.40;;;;;;;7.71;100.00;98837.81;5071160;28;20216;-63
2021/11/08 10:58:49;;;;;;;13.97;7.93;;;;;;;7.66;100.00;98845.06;5072929;28;20223;-63
2021/11/08 11:01:21;;;;;;;12.63;8.63;;;;;;;7.57;100.00;98834.97;5072570;28;20224;-64
2021/11/08 11:03:49;;;;;;;13.67;8.63;;;;;;;7.49;100.00;98837.09;5070070;28;20257;-63
2021/11/08 11:06:16;;;;;;;17.40;9.03;;;;;;;7.49;100.00;98837.09;5071310;28;20243;-63
2021/11/08 11:08:49;;;;;;;16.20;9.03;;;;;;;7.69;100.00;98834.38;5069608;28;20219;-63
2021/11/08 11:11:18;;;;;;;14.70;9.60;;;;;;;7.82;100.00;98836.38;5071307;28;20516;-63
2021/11/08 11:13:52;;;;;;;16.07;8.33;;;;;;;7.85;100.00;98836.22;5065014;28;20237;-63
2021/11/08 11:16:34;;;;;;;19.57;9.07;;;;;;;7.87;100.00;98839.66;5057536;28;20216;-63
2021/11/08 11:19:02;;;;;;;13.60;7.90;;;;;;;7.89;100.00;98842.22;5069503;28;20216;-63
2021/11/08 11:21:29;;;;;;;14.20;7.50;;;;;;;8.02;100.00;98843.34;5071740;28;20211;-63
2021/11/08 11:24:01;;;;;;;14.73;6.87;;;;;;;8.19;100.00;98840.72;5069216;28;20223;-63
2021/11/08 11:26:30;;;;;;;12.80;5.60;;;;;;;8.23;100.00;98839.69;5068422;28;20296;-62
2021/11/08 11:28:59;;;;;;;10.27;4.60;;;;;;;8.32;100.00;98836.63;5071693;28;20307;-62
2021/11/08 11:31:28;;;;;;;8.10;3.60;;;;;;;8.37;100.00;98839.88;5070935;28;20223;-62
2021/11/08 11:34:08;;;;;;;13.33;4.97;;;;;;;8.39;100.00;98822.22;5072180;28;20240;-62
2021/11/08 11:36:36;;;;;;;13.37;5.40;;;;;;;8.54;100.00;98826.72;5069560;28;20584;-62
2021/11/08 11:39:06;;;;;;;14.03;6.23;;;;;;;8.72;100.00;98825.78;5071952;28;20220;-61
2021/11/08 11:41:36;;;;;;;13.90;6.03;;;;;;;8.85;100.00;98826.88;5071890;28;20227;-62
2021/11/08 11:44:06;;;;;;;12.63;5.10;;;;;;;9.04;100.00;98822.34;5071755;28;20230;-62
2021/11/08 11:46:39;;;;;;;12.30;4.97;;;;;;;9.29;100.00;98817.47;5072084;28;20221;-62
2021/11/08 11:49:07;;;;;;;9.73;4.80;;;;;;;9.61;100.00;98816.63;5070079;28;20218;-62
2021/11/08 11:51:38;;;;;;;8.40;3.93;;;;;;;9.96;99.90;98810.22;5071338;28;20224;-63
2021/11/08 11:54:07;;;;;;;10.57;4.33;;;;;;;10.26;95.05;98809.41;5071851;28;20242;-63
2021/11/08 11:56:35;;;;;;;8.13;4.40;;;;;;;10.51;91.49;98798.28;5071895;28;20225;-62
2021/11/08 11:59:05;;;;;;;9.37;4.10;;;;;;;10.72;90.95;98802.28;5071678;28;20691;-62
2021/11/08 12:01:34;;;;;;;7.60;4.60;;;;;;;10.70;87.49;98798.88;5071858;28;20211;-62
2021/11/08 12:04:01;;;;;;;9.40;4.50;;;;;;;10.54;85.99;98795.44;5069688;28;20235;-63
2021/11/08 12:06:30;;;;;;;8.70;4.73;;;;;;;10.46;86.98;98800.31;5069683;28;20219;-62
2021/11/08 12:08:59;;;;;;;9.83;4.37;;;;;;;10.36;89.50;98793.84;5070468;28;20207;-62
2021/11/08 12:11:32;;;;;;;12.23;4.30;;;;;;;10.28;90.35;98793.47;5070653;28;20212;-62
2021/11/08 12:14:00;;;;;;;8.70;5.07;;;;;;;10.13;91.92;98795.19;5059614;28;20283;-62
2021/11/08 12:16:29;;;;;;;8.10;3.90;;;;;;;9.81;88.97;98785.56;5062014;28;20226;-62
2021/11/08 12:18:57;;;;;;;8.00;3.80;;;;;;;9.63;89.14;98786.59;5071032;28;20242;-62
2021/11/08 12:21:26;;;;;;;11.97;3.80;;;;;;;9.57;88.36;98784.28;5071055;28;20218;-62
2021/11/08 12:23:54;;;;;;;6.80;3.60;;;;;;;9.46;88.46;98778.72;5071606;28;20213;-62
2021/11/08 12:26:23;;;;;;;7.17;3.57;;;;;;;9.35;89.20;98785.50;5071685;28;20213;-63
2021/11/08 12:28:50;;;;;;;10.13;3.97;;;;;;;9.07;92.17;98782.66;5069235;28;20211;-62
2021/11/08 12:31:27;;;;;;;8.63;4.20;;;;;;;8.83;94.43;98782.16;5071748;28;20216;-62
2021/11/08 12:34:06;;;;;;;11.07;4.00;;;;;;;8.70;95.56;98786.34;5071538;28;20248;-63
2021/11/08 12:36:33;;;;;;;10.57;4.63;;;;;;;8.61;94.59;98791.22;5071239;28;20224;-62
2021/11/08 12:39:05;;;;;;;10.40;4.90;;;;;;;8.53;94.96;98793.41;5071457;28;20212;-62
2021/11/08 12:41:36;;;;;;;12.43;5.00;;;;;;;8.38;96.78;98788.91;5070637;28;20298;-62
2021/11/08 12:44:07;;;;;;;8.33;4.90;;;;;;;8.27;98.00;98792.06;5071317;28;20231;-62
2021/11/08 12:46:37;;;;;;;10.60;5.27;;;;;;;8.29;99.21;98784.97;5069136;28;20215;-62
2021/11/08 12:49:12;;;;;;;11.47;5.73;;;;;;;8.28;99.78;98782.41;5059976;28;20215;-62
2021/11/08 12:51:39;;;;;;;8.57;5.00;;;;;;;8.30;99.80;98780.53;5071137;28;20216;-62